createdAt,value
2017-08-24T00:01:41.149Z,68.08
2017-08-24T00:04:08.737Z,67.86
2017-08-24T00:06:36.198Z,67.33
2017-08-24T00:09:03.652Z,67.01
2017-08-24T00:11:31.140Z,66.85
2017-08-24T00:13:58.596Z,66.91
2017-08-24T00:16:26.104Z,67.16
2017-08-24T00:18:53.582Z,67.31
2017-08-24T00:21:21.062Z,67.33
2017-08-24T00:23:48.556Z,67.65
2017-08-24T00:26:16.046Z,67.78
2017-08-24T00:28:43.510Z,67.65
2017-08-24T00:31:11.011Z,67.53
2017-08-24T00:33:38.507Z,67.70
2017-08-24T00:36:05.963Z,67.92
2017-08-24T00:38:33.462Z,67.76
2017-08-24T00:41:01.622Z,67.81
2017-08-24T00:43:29.095Z,67.68
2017-08-24T00:45:56.601Z,67.54
2017-08-24T00:48:24.099Z,67.61
2017-08-24T00:50:51.577Z,68.06
2017-08-24T00:53:19.100Z,68.23
2017-08-24T00:55:46.586Z,68.30
2017-08-24T00:58:14.069Z,68.09
2017-08-24T01:00:41.554Z,68.32
2017-08-24T01:03:09.062Z,68.55
2017-08-24T01:05:36.525Z,68.69
2017-08-24T01:08:04.019Z,68.99
2017-08-24T01:10:31.493Z,69.13
2017-08-24T01:12:58.968Z,69.07
2017-08-24T01:15:26.464Z,69.28
2017-08-24T01:17:53.950Z,69.09
2017-08-24T01:20:21.426Z,69.07
2017-08-24T01:22:48.920Z,69.02
2017-08-24T01:25:16.433Z,68.88
2017-08-24T01:27:43.937Z,68.81
2017-08-24T01:30:11.430Z,68.96
2017-08-24T01:32:38.924Z,68.98
2017-08-24T01:35:06.421Z,69.19
2017-08-24T01:37:34.312Z,69.45
2017-08-24T01:40:01.782Z,69.34
2017-08-24T01:42:29.237Z,69.45
2017-08-24T01:44:56.735Z,69.67
2017-08-24T01:47:24.996Z,69.58
2017-08-24T01:49:52.520Z,69.67
2017-08-24T01:52:19.993Z,69.25
2017-08-24T01:54:47.473Z,69.25
2017-08-24T01:57:14.940Z,69.42
2017-08-24T01:59:42.466Z,69.52
2017-08-24T02:02:09.948Z,69.12
2017-08-24T02:04:37.415Z,68.85
2017-08-24T02:07:06.368Z,69.42
2017-08-24T02:09:33.853Z,69.54
2017-08-24T02:12:01.333Z,69.41
2017-08-24T02:14:28.782Z,69.57
2017-08-24T02:16:56.289Z,69.64
2017-08-24T02:19:23.760Z,69.62
2017-08-24T02:21:51.256Z,69.47
2017-08-24T02:24:18.718Z,69.43
2017-08-24T02:26:46.231Z,69.61
2017-08-24T02:29:13.706Z,69.74
2017-08-24T02:31:41.185Z,69.88
2017-08-24T02:34:08.675Z,69.92
2017-08-24T02:36:36.161Z,70.04
2017-08-24T02:39:03.641Z,70.01
2017-08-24T02:41:31.160Z,69.93
2017-08-24T02:43:58.669Z,69.85
2017-08-24T02:46:26.160Z,70.40
2017-08-24T02:48:53.671Z,70.37
2017-08-24T02:51:21.125Z,70.50
2017-08-24T02:53:48.612Z,70.55
2017-08-24T02:56:16.081Z,70.33
2017-08-24T02:58:43.578Z,70.11
2017-08-24T03:01:11.043Z,69.96
2017-08-24T03:03:38.652Z,69.96
2017-08-24T03:06:06.113Z,69.91
2017-08-24T03:08:33.572Z,69.69
2017-08-24T03:11:01.087Z,69.73
2017-08-24T03:13:28.552Z,70.00
2017-08-24T03:15:56.038Z,71.00
2017-08-24T03:18:23.502Z,71.34
2017-08-24T03:20:50.989Z,70.73
2017-08-24T03:23:18.543Z,71.87
2017-08-24T03:25:46.034Z,72.52
2017-08-24T03:28:13.513Z,72.98
2017-08-24T03:30:41.017Z,73.64
2017-08-24T03:33:08.473Z,74.12
2017-08-24T03:35:36.312Z,73.88
2017-08-24T03:38:03.787Z,74.06
2017-08-24T03:40:31.566Z,74.56
2017-08-24T03:42:59.052Z,74.74
2017-08-24T03:45:26.568Z,74.88
2017-08-24T03:47:54.064Z,75.11
2017-08-24T03:50:21.545Z,75.39
2017-08-24T03:52:49.055Z,75.00
2017-08-24T03:55:16.509Z,75.32
2017-08-24T03:57:44.003Z,75.22
2017-08-24T04:00:11.495Z,75.45
2017-08-24T04:02:38.998Z,75.43
2017-08-24T04:05:06.474Z,75.60
2017-08-24T04:07:33.984Z,75.79
2017-08-24T04:10:01.664Z,76.08
2017-08-24T04:12:29.189Z,76.32
2017-08-24T04:14:56.746Z,75.94
2017-08-24T04:17:24.237Z,76.27
2017-08-24T04:19:51.744Z,76.02
2017-08-24T04:22:19.227Z,76.07
2017-08-24T04:24:46.736Z,76.44
2017-08-24T04:27:14.203Z,76.67
2017-08-24T04:29:41.688Z,77.07
2017-08-24T04:32:09.157Z,76.74
2017-08-24T04:34:36.662Z,76.66
2017-08-24T04:37:05.442Z,76.58
2017-08-24T04:39:32.980Z,76.26
2017-08-24T04:42:00.460Z,75.71
2017-08-24T04:44:27.993Z,75.55
2017-08-24T04:46:55.485Z,75.48
2017-08-24T04:49:22.982Z,75.15
2017-08-24T04:51:50.444Z,74.61
2017-08-24T04:54:18.060Z,74.42
2017-08-24T04:56:45.547Z,74.14
2017-08-24T04:59:13.056Z,74.01
2017-08-24T05:01:40.573Z,74.10
2017-08-24T05:04:08.090Z,74.04
2017-08-24T05:06:35.628Z,74.69
2017-08-24T05:09:03.112Z,74.28
2017-08-24T05:11:30.633Z,73.90
2017-08-24T05:13:58.092Z,73.56
2017-08-24T05:16:25.592Z,73.20
2017-08-24T05:18:53.087Z,72.73
2017-08-24T05:21:20.538Z,72.43
2017-08-24T05:23:48.301Z,72.02
2017-08-24T05:26:15.789Z,71.34
2017-08-24T05:28:43.271Z,70.90
2017-08-24T05:31:10.771Z,70.59
2017-08-24T05:33:38.297Z,69.98
2017-08-24T05:36:06.115Z,69.61
2017-08-24T05:38:35.481Z,69.05
2017-08-24T05:41:03.010Z,68.68
2017-08-24T05:43:30.514Z,68.36
2017-08-24T05:45:58.002Z,68.32
2017-08-24T05:48:25.464Z,68.13
2017-08-24T05:50:52.953Z,67.89
2017-08-24T05:53:20.416Z,67.56
2017-08-24T05:55:47.982Z,67.64
2017-08-24T05:58:15.497Z,67.71
2017-08-24T06:00:42.974Z,67.51
2017-08-24T06:03:10.469Z,67.56
2017-08-24T06:05:37.970Z,67.09
2017-08-24T06:08:05.480Z,66.91
2017-08-24T06:10:32.986Z,66.64
2017-08-24T06:13:00.553Z,66.31
2017-08-24T06:15:28.033Z,66.24
2017-08-24T06:17:55.555Z,66.11
2017-08-24T06:20:23.094Z,65.47
2017-08-24T06:22:50.587Z,64.47
2017-08-24T06:25:18.088Z,64.01
2017-08-24T06:27:45.584Z,63.88
2017-08-24T06:30:13.074Z,63.34
2017-08-24T06:32:41.040Z,63.32
2017-08-24T06:35:08.545Z,62.81
2017-08-24T06:37:36.072Z,61.82
2017-08-24T06:40:03.604Z,61.19
2017-08-24T06:42:31.129Z,61.29
2017-08-24T06:44:58.628Z,61.23
2017-08-24T06:47:26.094Z,60.79
2017-08-24T06:49:53.609Z,60.41
2017-08-24T06:52:21.060Z,60.01
2017-08-24T06:54:48.876Z,59.29
2017-08-24T06:57:16.379Z,58.15
2017-08-24T06:59:43.899Z,57.74
2017-08-24T07:02:11.402Z,57.79
2017-08-24T07:04:38.892Z,58.31
2017-08-24T07:07:06.341Z,55.66
2017-08-24T07:09:33.862Z,54.59
2017-08-24T07:12:01.354Z,54.01
2017-08-24T07:14:28.805Z,54.54
2017-08-24T07:16:56.284Z,54.85
2017-08-24T07:19:23.752Z,54.57
2017-08-24T07:21:51.262Z,55.67
2017-08-24T07:24:18.719Z,57.96
2017-08-24T07:26:46.255Z,58.86
2017-08-24T07:29:14.182Z,56.17
2017-08-24T07:31:41.671Z,54.76
2017-08-24T07:34:09.147Z,54.37
2017-08-24T07:36:36.783Z,54.31
2017-08-24T07:39:04.252Z,53.98
2017-08-24T07:41:31.829Z,54.88
2017-08-24T07:43:59.313Z,55.06
2017-08-24T07:46:26.803Z,53.93
2017-08-24T07:48:54.349Z,53.71
2017-08-24T07:51:21.810Z,53.20
2017-08-24T07:53:49.445Z,51.70
2017-08-24T07:56:17.167Z,51.42
2017-08-24T07:58:44.710Z,50.22
2017-08-24T08:01:13.251Z,48.54
2017-08-24T08:03:40.882Z,47.74
2017-08-24T08:06:08.342Z,47.71
2017-08-24T08:08:35.815Z,46.94
2017-08-24T08:11:03.293Z,46.54
2017-08-24T08:13:30.836Z,46.96
2017-08-24T08:15:58.338Z,48.22
2017-08-24T08:18:25.893Z,47.91
2017-08-24T08:20:53.431Z,46.88
2017-08-24T08:23:20.921Z,45.81
2017-08-24T08:25:48.414Z,44.83
2017-08-24T08:28:15.995Z,43.64
2017-08-24T08:30:43.479Z,43.86
2017-08-24T08:33:11.015Z,43.26
2017-08-24T08:35:38.522Z,42.71
2017-08-24T08:38:06.036Z,43.18
2017-08-24T08:40:33.523Z,43.81
2017-08-24T08:43:01.031Z,43.29
2017-08-24T08:45:28.509Z,43.32
2017-08-24T08:47:55.998Z,42.23
2017-08-24T08:50:23.449Z,42.46
2017-08-24T08:52:51.185Z,41.33
2017-08-24T08:55:18.645Z,40.17
2017-08-24T08:57:46.137Z,39.61
2017-08-24T09:00:13.655Z,39.35
2017-08-24T09:02:41.141Z,38.95
2017-08-24T09:05:08.685Z,39.40
2017-08-24T09:07:36.164Z,39.24
2017-08-24T09:10:03.672Z,39.34
2017-08-24T09:12:31.181Z,38.99
2017-08-24T09:14:58.918Z,39.29
2017-08-24T09:17:26.386Z,40.29
2017-08-24T09:19:53.941Z,39.87
2017-08-24T09:22:21.432Z,39.95
2017-08-24T09:24:48.957Z,39.73
2017-08-24T09:27:16.436Z,38.83
2017-08-24T09:29:43.933Z,39.98
2017-08-24T09:32:11.411Z,39.66
2017-08-24T09:34:38.861Z,39.01
2017-08-24T09:37:06.340Z,37.64
2017-08-24T09:39:34.133Z,38.93
2017-08-24T09:42:01.642Z,39.21
2017-08-24T09:44:29.140Z,38.95
2017-08-24T09:46:56.636Z,39.14
2017-08-24T09:49:24.195Z,37.62
2017-08-24T09:51:52.702Z,36.08
2017-08-24T09:54:20.211Z,36.77
2017-08-24T09:56:47.702Z,36.36
2017-08-24T09:59:15.272Z,35.97
2017-08-24T10:01:42.772Z,35.91
2017-08-24T10:04:10.985Z,34.65
2017-08-24T10:06:38.455Z,35.07
2017-08-24T10:09:06.722Z,35.66
2017-08-24T10:11:34.236Z,35.24
2017-08-24T10:14:01.770Z,37.00
2017-08-24T10:16:29.241Z,37.05
2017-08-24T10:18:56.739Z,35.07
2017-08-24T10:21:24.225Z,33.23
2017-08-24T10:23:51.723Z,34.09
2017-08-24T10:26:19.202Z,34.80
2017-08-24T10:28:46.739Z,34.50
2017-08-24T10:31:14.177Z,33.84
2017-08-24T10:33:41.625Z,33.21
2017-08-24T10:36:09.132Z,33.78
2017-08-24T10:38:37.559Z,35.08
2017-08-24T10:41:05.412Z,35.48
2017-08-24T10:43:32.891Z,35.91
2017-08-24T10:46:00.431Z,35.51
2017-08-24T10:48:27.924Z,35.15
2017-08-24T10:50:55.457Z,35.29
2017-08-24T10:53:22.950Z,36.22
2017-08-24T10:55:50.546Z,36.32
2017-08-24T10:58:18.035Z,34.21
2017-08-24T11:00:45.488Z,34.68
2017-08-24T11:03:12.986Z,35.79
2017-08-24T11:05:40.451Z,35.82
2017-08-24T11:08:07.939Z,35.97
2017-08-24T11:10:35.417Z,36.13
2017-08-24T11:13:02.919Z,36.01
2017-08-24T11:15:30.420Z,36.48
2017-08-24T11:17:57.903Z,36.75
2017-08-24T11:20:25.451Z,36.65
2017-08-24T11:22:52.926Z,36.45
2017-08-24T11:25:20.925Z,35.30
2017-08-24T11:27:48.455Z,35.79
2017-08-24T11:30:15.970Z,34.71
2017-08-24T11:32:43.445Z,34.76
2017-08-24T11:35:10.976Z,35.15
2017-08-24T11:37:38.507Z,33.35
2017-08-24T11:40:06.037Z,32.87
2017-08-24T11:42:33.532Z,33.90
2017-08-24T11:45:01.131Z,33.29
2017-08-24T11:47:28.517Z,34.72
2017-08-24T11:49:56.039Z,34.96
2017-08-24T11:52:24.448Z,35.70
2017-08-24T11:54:52.075Z,34.79
2017-08-24T11:57:19.569Z,34.00
2017-08-24T11:59:47.104Z,35.28
2017-08-24T12:02:14.641Z,35.62
2017-08-24T12:04:42.110Z,35.59
2017-08-24T12:07:09.599Z,35.64
2017-08-24T12:09:37.105Z,35.45
2017-08-24T12:12:05.146Z,35.46
2017-08-24T12:14:32.621Z,35.69
2017-08-24T12:17:00.150Z,35.93
2017-08-24T12:19:27.614Z,36.64
2017-08-24T12:21:55.098Z,36.77
2017-08-24T12:24:22.612Z,36.74
2017-08-24T12:26:50.067Z,36.43
2017-08-24T12:29:17.546Z,37.52
2017-08-24T12:31:45.047Z,37.75
2017-08-24T12:34:12.729Z,37.80
2017-08-24T12:36:40.222Z,37.37
2017-08-24T12:39:08.163Z,37.22
2017-08-24T12:41:35.727Z,35.59
2017-08-24T12:44:06.367Z,35.48
2017-08-24T12:46:33.916Z,35.15
2017-08-24T12:49:01.432Z,35.53
2017-08-24T12:51:28.876Z,35.62
2017-08-24T12:53:56.745Z,35.62
2017-08-24T12:56:24.249Z,35.42
2017-08-24T12:58:51.728Z,34.62
2017-08-24T13:01:19.214Z,34.69
2017-08-24T13:03:46.668Z,35.13
2017-08-24T13:06:14.215Z,35.20
2017-08-24T13:08:41.744Z,35.86
2017-08-24T13:11:09.687Z,35.53
2017-08-24T13:13:37.192Z,35.73
2017-08-24T13:16:05.379Z,35.77
2017-08-24T13:18:33.637Z,35.86
2017-08-24T13:21:01.151Z,36.06
2017-08-24T13:23:28.707Z,35.39
2017-08-24T13:25:56.196Z,34.71
2017-08-24T13:28:24.370Z,34.14
2017-08-24T13:30:51.844Z,34.50
2017-08-24T13:33:19.382Z,34.58
2017-08-24T13:35:46.864Z,34.20
2017-08-24T13:38:14.446Z,34.16
2017-08-24T13:40:41.995Z,34.38
2017-08-24T13:43:09.487Z,34.44
2017-08-24T13:45:37.012Z,34.50
2017-08-24T13:48:04.890Z,34.54
2017-08-24T13:50:32.402Z,35.10
2017-08-24T13:52:59.883Z,35.51
2017-08-24T13:55:27.666Z,35.73
2017-08-24T13:57:55.152Z,35.41
2017-08-24T14:00:22.646Z,35.50
2017-08-24T14:02:50.213Z,35.03
2017-08-24T14:05:17.730Z,34.86
2017-08-24T14:07:45.188Z,35.00
2017-08-24T14:10:12.689Z,34.68
2017-08-24T14:12:40.214Z,34.72
2017-08-24T14:15:07.814Z,34.59
2017-08-24T14:17:35.315Z,34.73
2017-08-24T14:20:02.805Z,34.75
2017-08-24T14:22:30.326Z,35.18
2017-08-24T14:24:57.827Z,35.28
2017-08-24T14:27:25.341Z,35.08
2017-08-24T14:29:52.813Z,35.06
2017-08-24T14:32:20.362Z,35.39
2017-08-24T14:34:47.821Z,35.52
2017-08-24T14:37:16.180Z,35.11
2017-08-24T14:39:43.788Z,35.09
2017-08-24T14:42:11.322Z,35.00
2017-08-24T14:44:39.383Z,34.17
2017-08-24T14:47:06.900Z,33.90
2017-08-24T14:49:34.410Z,34.04
2017-08-24T14:52:01.902Z,34.12
2017-08-24T14:54:29.451Z,34.75
2017-08-24T14:56:57.665Z,34.90
2017-08-24T14:59:26.088Z,34.47
2017-08-24T15:01:54.457Z,33.58
2017-08-24T15:04:21.949Z,32.98
2017-08-24T15:06:50.625Z,32.09
2017-08-24T15:09:18.098Z,32.00
2017-08-24T15:11:47.654Z,31.77
2017-08-24T15:14:15.178Z,32.04
2017-08-24T15:16:42.669Z,32.53
2017-08-24T15:19:10.277Z,33.31
2017-08-24T15:21:37.809Z,33.46
2017-08-24T15:24:05.659Z,33.77
2017-08-24T15:26:33.215Z,34.81
2017-08-24T15:29:01.230Z,35.52
2017-08-24T15:31:29.108Z,37.18
2017-08-24T15:33:56.569Z,38.17
2017-08-24T15:36:24.888Z,38.56
2017-08-24T15:38:52.378Z,38.77
2017-08-24T15:41:19.891Z,39.40
2017-08-24T15:43:47.366Z,40.48
2017-08-24T15:46:14.890Z,40.89
2017-08-24T15:48:42.381Z,42.42
2017-08-24T15:51:09.866Z,41.02
2017-08-24T15:53:37.425Z,41.74
2017-08-24T15:56:05.743Z,41.71
2017-08-24T15:58:33.262Z,41.69
2017-08-24T16:01:00.717Z,41.51
2017-08-24T16:03:28.235Z,41.11
2017-08-24T16:05:56.017Z,40.81
2017-08-24T16:08:23.703Z,41.19
2017-08-24T16:10:52.229Z,42.04
2017-08-24T16:13:19.855Z,40.98
2017-08-24T16:15:47.351Z,40.56
2017-08-24T16:18:14.849Z,39.87
2017-08-24T16:20:42.337Z,38.17
2017-08-24T16:23:09.819Z,38.42
2017-08-24T16:25:37.302Z,39.05
2017-08-24T16:28:04.920Z,38.96
2017-08-24T16:30:32.428Z,40.07
2017-08-24T16:32:59.895Z,41.05
2017-08-24T16:35:27.379Z,40.42
2017-08-24T16:37:58.265Z,40.35
2017-08-24T16:40:26.560Z,41.91
2017-08-24T16:42:54.086Z,40.91
2017-08-24T16:45:21.585Z,41.16
2017-08-24T16:47:49.069Z,41.70
2017-08-24T16:50:16.652Z,40.56
2017-08-24T16:52:44.129Z,40.87
2017-08-24T16:55:11.764Z,41.54
2017-08-24T16:57:39.322Z,42.93
2017-08-24T17:00:06.790Z,42.47
2017-08-24T17:02:34.293Z,42.83
2017-08-24T17:05:01.745Z,43.18
2017-08-24T17:07:29.222Z,43.14
2017-08-24T17:09:56.724Z,42.75
2017-08-24T17:12:24.204Z,42.94
2017-08-24T17:14:51.695Z,43.10
2017-08-24T17:17:19.150Z,43.46
2017-08-24T17:19:46.627Z,44.15
2017-08-24T17:22:14.140Z,44.41
2017-08-24T17:24:41.635Z,44.97
2017-08-24T17:27:09.505Z,44.24
2017-08-24T17:29:36.990Z,44.08
2017-08-24T17:32:04.861Z,44.63
2017-08-24T17:34:32.361Z,44.95
2017-08-24T17:36:59.820Z,45.08
2017-08-24T17:39:27.311Z,44.92
2017-08-24T17:41:54.833Z,44.93
2017-08-24T17:44:22.334Z,46.09
2017-08-24T17:46:49.801Z,45.87
2017-08-24T17:49:17.316Z,44.22
2017-08-24T17:51:44.769Z,43.93
2017-08-24T17:54:12.233Z,45.05
2017-08-24T17:56:39.733Z,44.87
2017-08-24T17:59:07.212Z,43.57
2017-08-24T18:01:34.724Z,44.47
2017-08-24T18:04:03.179Z,45.04
2017-08-24T18:06:30.681Z,45.98
2017-08-24T18:08:58.160Z,45.21
2017-08-24T18:11:25.644Z,45.81
2017-08-24T18:13:53.089Z,45.10
2017-08-24T18:16:20.581Z,45.78
2017-08-24T18:18:48.047Z,47.29
2017-08-24T18:21:15.816Z,45.53
2017-08-24T18:23:43.286Z,47.71
2017-08-24T18:26:10.743Z,46.89
2017-08-24T18:28:38.234Z,43.86
2017-08-24T18:31:05.686Z,47.45
2017-08-24T18:33:33.175Z,46.23
2017-08-24T18:36:00.642Z,46.04
2017-08-24T18:38:28.136Z,45.55
2017-08-24T18:40:55.634Z,45.45
2017-08-24T18:43:23.662Z,44.45
2017-08-24T18:45:51.127Z,45.53
2017-08-24T18:48:18.621Z,45.90
2017-08-24T18:50:46.094Z,47.51
2017-08-24T18:53:13.542Z,47.53
2017-08-24T18:55:41.129Z,47.65
2017-08-24T18:58:08.591Z,48.33
2017-08-24T19:00:36.183Z,47.87
2017-08-24T19:03:03.657Z,48.32
2017-08-24T19:05:31.157Z,48.50
2017-08-24T19:07:58.608Z,47.84
2017-08-24T19:10:26.096Z,48.87
2017-08-24T19:12:53.609Z,49.93
2017-08-24T19:15:21.078Z,49.94
2017-08-24T19:17:48.623Z,50.04
2017-08-24T19:20:16.126Z,50.71
2017-08-24T19:22:43.667Z,50.53
2017-08-24T19:25:11.172Z,51.20
2017-08-24T19:27:38.670Z,52.25
2017-08-24T19:30:06.121Z,52.20
2017-08-24T19:32:33.669Z,52.56
2017-08-24T19:35:01.150Z,52.66
2017-08-24T19:37:29.127Z,53.04
2017-08-24T19:39:56.644Z,53.75
2017-08-24T19:42:24.131Z,53.32
2017-08-24T19:44:52.166Z,53.91
2017-08-24T19:47:19.642Z,54.31
2017-08-24T19:49:47.228Z,54.35
2017-08-24T19:52:14.687Z,55.12
2017-08-24T19:54:42.151Z,54.89
2017-08-24T19:57:09.665Z,55.33
2017-08-24T19:59:37.150Z,55.77
2017-08-24T20:02:04.652Z,56.03
2017-08-24T20:04:32.130Z,55.96
2017-08-24T20:06:59.643Z,56.11
2017-08-24T20:09:27.123Z,56.25
2017-08-24T20:11:54.600Z,56.46
2017-08-24T20:14:22.117Z,56.92
2017-08-24T20:16:49.835Z,57.27
2017-08-24T20:19:17.294Z,57.53
2017-08-24T20:21:44.776Z,57.67
2017-08-24T20:24:12.251Z,57.77
2017-08-24T20:26:39.788Z,57.73
2017-08-24T20:29:07.295Z,57.83
2017-08-24T20:31:34.778Z,58.12
2017-08-24T20:34:02.304Z,58.48
2017-08-24T20:36:29.784Z,59.13
2017-08-24T20:38:57.265Z,59.04
2017-08-24T20:41:24.726Z,59.90
2017-08-24T20:43:52.609Z,60.27
2017-08-24T20:46:20.110Z,60.21
2017-08-24T20:48:47.576Z,59.93
2017-08-24T20:51:15.069Z,59.93
2017-08-24T20:53:42.518Z,60.59
2017-08-24T20:56:09.978Z,60.92
2017-08-24T20:58:37.492Z,60.90
2017-08-24T21:01:05.003Z,60.85
2017-08-24T21:03:33.475Z,61.14
2017-08-24T21:06:01.053Z,60.66
2017-08-24T21:08:28.506Z,60.83
2017-08-24T21:10:56.004Z,61.16
2017-08-24T21:13:23.466Z,61.26
2017-08-24T21:15:50.966Z,60.98
2017-08-24T21:18:18.417Z,61.62
2017-08-24T21:20:45.895Z,61.55
2017-08-24T21:23:13.398Z,61.60
2017-08-24T21:25:40.853Z,61.57
2017-08-24T21:28:08.358Z,61.62
2017-08-24T21:30:35.809Z,61.75
2017-08-24T21:33:03.302Z,61.87
2017-08-24T21:35:30.789Z,62.22
2017-08-24T21:37:58.538Z,62.19
2017-08-24T21:40:26.201Z,62.22
2017-08-24T21:42:53.712Z,63.64
2017-08-24T21:45:21.164Z,62.65
2017-08-24T21:47:48.688Z,61.28
2017-08-24T21:50:16.163Z,60.22
2017-08-24T21:52:43.694Z,59.29
2017-08-24T21:55:11.201Z,58.89
2017-08-24T21:57:38.686Z,59.74
2017-08-24T22:00:06.192Z,60.02
2017-08-24T22:02:33.666Z,60.31
2017-08-24T22:05:02.821Z,60.76
2017-08-24T22:07:30.370Z,61.06
2017-08-24T22:09:57.831Z,60.87
2017-08-24T22:12:25.353Z,60.79
2017-08-24T22:14:52.806Z,60.93
2017-08-24T22:17:20.282Z,61.04
2017-08-24T22:19:47.794Z,60.79
2017-08-24T22:22:15.318Z,61.15
2017-08-24T22:24:42.792Z,61.44
2017-08-24T22:27:10.446Z,61.62
2017-08-24T22:29:37.896Z,61.88
2017-08-24T22:32:05.360Z,62.17
2017-08-24T22:34:37.423Z,62.27
2017-08-24T22:37:04.883Z,62.30
2017-08-24T22:39:32.422Z,62.17
2017-08-24T22:41:59.894Z,62.54
2017-08-24T22:44:27.460Z,62.84
2017-08-24T22:46:54.908Z,62.87
2017-08-24T22:49:22.394Z,63.17
2017-08-24T22:51:49.923Z,63.12
2017-08-24T22:54:22.922Z,63.18
2017-08-24T22:56:55.932Z,62.67
2017-08-24T22:59:29.033Z,62.75
2017-08-24T23:02:02.107Z,62.69
2017-08-24T23:04:29.613Z,63.01
2017-08-24T23:06:57.078Z,62.67
2017-08-24T23:09:24.571Z,62.58
2017-08-24T23:11:52.047Z,62.88
2017-08-24T23:14:19.499Z,62.85
2017-08-24T23:16:46.973Z,63.10
2017-08-24T23:19:14.457Z,63.30
2017-08-24T23:21:41.937Z,63.10
2017-08-24T23:24:09.390Z,62.83
2017-08-24T23:26:36.869Z,62.77
2017-08-24T23:29:04.381Z,63.10
2017-08-24T23:31:31.908Z,63.43
2017-08-24T23:33:59.381Z,63.48
2017-08-24T23:36:26.879Z,63.70
2017-08-24T23:38:54.332Z,63.71
2017-08-24T23:41:21.798Z,63.73
2017-08-24T23:43:49.286Z,63.83
2017-08-24T23:46:16.769Z,63.91
2017-08-24T23:48:44.285Z,64.44
2017-08-24T23:51:11.758Z,64.35
2017-08-24T23:53:40.111Z,64.76
2017-08-24T23:56:07.563Z,64.55
2017-08-24T23:58:35.037Z,64.18
